Time;durP1;ratioP1;P1;durP2;ratioP2;P2;SDS_P1;SDS_P2;PMS_P1;PMS_P2;Temp;Humidity;BMP_temperature;BMP_pressure;BME280_temperature;BME280_humidity;BME280_pressure;Samples;Min_cycle;Max_cycle;Signal;HPM_P1;HPM_P2
2022/09/29 00:00:55;;;;;;;1.33;1.23;;;21.60;98.40;;;;;;5146523;27;20449;-63
2022/09/29 00:03:26;;;;;;;1.43;1.33;;;21.60;98.60;;;;;;5146861;27;20465;-64
2022/09/29 00:05:58;;;;;;;1.57;1.47;;;21.60;98.60;;;;;;5146585;27;20621;-63
2022/09/29 00:08:31;;;;;;;1.50;1.37;;;21.60;98.50;;;;;;5146730;27;20445;-63
2022/09/29 00:11:01;;;;;;;1.27;1.10;;;21.60;98.70;;;;;;5145524;27;20478;-64
2022/09/29 00:13:32;;;;;;;1.23;1.03;;;21.60;98.90;;;;;;5146604;27;20444;-63
2022/09/29 00:16:05;;;;;;;1.17;1.17;;;21.50;98.20;;;;;;5145980;27;20441;-64
2022/09/29 00:18:36;;;;;;;1.83;1.73;;;21.50;98.50;;;;;;5146433;27;20422;-63
2022/09/29 00:21:09;;;;;;;1.23;1.13;;;21.40;98.90;;;;;;5146408;27;20444;-63
2022/09/29 00:23:40;;;;;;;0.90;0.87;;;21.50;98.80;;;;;;5146422;27;20444;-63
2022/09/29 00:26:12;;;;;;;5.50;1.30;;;21.60;99.60;;;;;;5145209;27;20480;-63
2022/09/29 00:28:47;;;;;;;1.40;1.10;;;21.40;99.80;;;;;;5121002;27;20530;-63
2022/09/29 00:31:20;;;;;;;1.30;1.20;;;21.20;99.90;;;;;;5104424;28;20503;-63
2022/09/29 00:33:51;;;;;;;1.40;1.30;;;21.20;99.50;;;;;;5105024;28;20849;-64
2022/09/29 00:36:23;;;;;;;1.70;1.60;;;21.20;98.90;;;;;;5129499;27;20445;-64
2022/09/29 00:38:54;;;;;;;1.43;1.30;;;21.20;99.20;;;;;;5145859;27;20640;-63
2022/09/29 00:41:26;;;;;;;1.20;1.10;;;21.10;99.70;;;;;;5144741;27;20441;-64
2022/09/29 00:44:00;;;;;;;1.50;1.33;;;21.10;99.90;;;;;;5145516;27;20415;-63
2022/09/29 00:46:40;;;;;;;1.80;1.50;;;21.00;99.00;;;;;;5145448;27;20488;-64
2022/09/29 00:49:18;;;;;;;1.40;1.30;;;21.00;99.40;;;;;;5145769;27;20516;-64
2022/09/29 00:51:56;;;;;;;1.57;1.47;;;21.10;99.30;;;;;;5145262;27;20444;-64
2022/09/29 00:54:30;;;;;;;1.87;1.77;;;21.00;99.20;;;;;;5146234;27;20421;-63
2022/09/29 00:57:03;;;;;;;2.53;1.40;;;21.00;98.90;;;;;;5144785;27;20423;-63
2022/09/29 00:59:39;;;;;;;1.50;1.40;;;20.90;99.40;;;;;;5145482;27;20449;-63
2022/09/29 01:02:12;;;;;;;2.00;1.70;;;20.80;99.90;;;;;;5145212;27;20845;-64
2022/09/29 01:04:43;;;;;;;2.40;1.47;;;20.80;99.90;;;;;;5145242;27;20602;-65
2022/09/29 01:07:15;;;;;;;1.30;1.20;;;20.70;99.90;;;;;;5145076;27;20444;-64
2022/09/29 01:09:49;;;;;;;2.80;1.77;;;20.70;99.90;;;;;;5144718;27;20805;-63
2022/09/29 01:12:20;;;;;;;3.30;1.73;;;20.60;99.90;;;;;;5144873;27;20459;-64
2022/09/29 01:14:53;;;;;;;2.90;1.73;;;20.60;99.90;;;;;;5145041;27;20427;-64
2022/09/29 01:17:26;;;;;;;2.27;1.57;;;20.50;99.90;;;;;;5137242;27;20482;-64
2022/09/29 01:20:09;;;;;;;1.17;1.13;;;20.50;99.90;;;;;;5124352;28;20449;-64
2022/09/29 01:23:08;;;;;;;1.67;1.50;;;20.40;99.90;;;;;;5124020;28;20469;-64
2022/09/29 01:26:08;;;;;;;1.50;1.23;;;20.30;99.90;;;;;;5124941;27;20489;-64
2022/09/29 01:29:13;;;;;;;1.50;1.40;;;20.30;99.90;;;;;;5111389;27;20513;-64
2022/09/29 01:31:53;;;;;;;1.93;1.17;;;20.20;99.90;;;;;;5144395;27;20484;-63
2022/09/29 01:34:35;;;;;;;1.40;1.30;;;20.20;99.90;;;;;;5144838;27;20443;-65
2022/09/29 01:37:14;;;;;;;1.33;1.23;;;20.20;99.90;;;;;;5144909;27;20437;-64
2022/09/29 01:39:53;;;;;;;1.70;1.60;;;20.30;99.90;;;;;;5144009;27;20497;-64
2022/09/29 01:42:28;;;;;;;1.53;1.43;;;20.20;99.90;;;;;;5144417;27;20448;-63
2022/09/29 01:45:05;;;;;;;1.70;1.23;;;20.10;99.90;;;;;;5144393;27;20491;-64
2022/09/29 01:47:41;;;;;;;1.20;1.10;;;20.20;99.90;;;;;;5144141;27;20501;-64
2022/09/29 01:50:15;;;;;;;1.63;1.47;;;20.20;99.90;;;;;;5144401;27;20532;-64
2022/09/29 01:52:50;;;;;;;1.40;1.30;;;20.20;99.90;;;;;;5143751;27;20444;-64
2022/09/29 01:55:25;;;;;;;1.40;1.30;;;20.30;99.90;;;;;;5138955;27;20446;-64
2022/09/29 01:57:58;;;;;;;1.40;1.30;;;20.30;99.90;;;;;;5143791;27;20448;-64
2022/09/29 02:00:32;;;;;;;1.93;1.47;;;20.20;99.90;;;;;;5143950;27;20427;-64
2022/09/29 02:03:12;;;;;;;1.13;1.00;;;20.10;99.90;;;;;;5143697;27;20509;-64
2022/09/29 02:05:47;;;;;;;1.27;1.17;;;20.10;99.90;;;;;;5143806;27;20524;-64
2022/09/29 02:08:23;;;;;;;1.13;1.10;;;20.10;99.90;;;;;;5144144;27;20440;-64
2022/09/29 02:10:59;;;;;;;1.60;1.03;;;20.00;99.90;;;;;;5142862;27;20449;-65
2022/09/29 02:13:34;;;;;;;1.50;1.20;;;19.90;99.90;;;;;;5134701;27;20502;-64
2022/09/29 02:16:06;;;;;;;1.60;1.27;;;19.90;99.90;;;;;;5121184;27;20525;-64
2022/09/29 02:18:44;;;;;;;2.30;1.40;;;19.80;99.90;;;;;;5121814;27;20461;-66
2022/09/29 02:21:15;;;;;;;1.63;1.33;;;19.70;99.90;;;;;;5134868;27;20468;-63
2022/09/29 02:23:46;;;;;;;1.20;1.10;;;19.70;99.90;;;;;;5130675;27;20990;-63
2022/09/29 02:26:17;;;;;;;1.63;1.50;;;19.70;99.90;;;;;;5124315;27;20482;-65
2022/09/29 02:28:49;;;;;;;2.80;1.83;;;19.70;99.90;;;;;;5129172;27;20765;-64
2022/09/29 02:31:20;;;;;;;1.27;1.17;;;19.70;99.90;;;;;;5133844;27;20423;-64
2022/09/29 02:33:53;;;;;;;2.03;1.43;;;19.70;99.90;;;;;;5136956;27;20546;-62
2022/09/29 02:36:33;;;;;;;1.53;1.40;;;19.70;99.90;;;;;;5143417;27;20526;-62
2022/09/29 02:39:09;;;;;;;1.60;1.50;;;19.70;99.90;;;;;;5137833;27;20405;-63
2022/09/29 02:41:50;;;;;;;1.67;1.57;;;19.70;99.90;;;;;;5127722;27;20551;-66
2022/09/29 02:44:42;;;;;;;1.73;1.50;;;19.60;99.90;;;;;;5126205;27;20452;-66
2022/09/29 02:47:30;;;;;;;3.73;1.47;;;19.50;99.90;;;;;;5124661;27;20511;-65
2022/09/29 02:50:22;;;;;;;1.07;0.97;;;19.50;99.90;;;;;;5124560;27;20493;-65
2022/09/29 02:52:58;;;;;;;2.03;1.63;;;19.40;99.90;;;;;;5127783;27;20473;-65
2022/09/29 02:55:37;;;;;;;2.67;1.70;;;19.40;99.90;;;;;;5115467;27;20886;-64
2022/09/29 02:58:13;;;;;;;2.03;1.30;;;19.30;99.90;;;;;;5134234;27;20464;-64
2022/09/29 03:00:45;;;;;;;2.33;1.60;;;19.20;99.90;;;;;;5142653;27;20435;-63
2022/09/29 03:03:16;;;;;;;1.47;1.37;;;19.20;99.90;;;;;;5136512;27;20480;-63
2022/09/29 03:05:49;;;;;;;2.90;1.40;;;19.20;99.90;;;;;;5116704;27;20463;-64
2022/09/29 03:08:20;;;;;;;1.80;1.70;;;19.10;99.90;;;;;;5134519;27;20597;-65
2022/09/29 03:10:51;;;;;;;1.60;1.50;;;19.10;99.90;;;;;;5133551;27;20943;-65
2022/09/29 03:13:22;;;;;;;1.73;1.53;;;19.10;99.90;;;;;;5141742;27;20511;-64
2022/09/29 03:15:53;;;;;;;2.50;1.70;;;19.00;99.90;;;;;;5137963;27;20554;-64
2022/09/29 03:18:24;;;;;;;2.23;1.53;;;19.00;99.90;;;;;;5134675;28;20455;-64
2022/09/29 03:20:57;;;;;;;2.30;2.00;;;19.00;99.90;;;;;;5139580;27;20435;-64
2022/09/29 03:23:28;;;;;;;2.23;1.73;;;19.10;99.90;;;;;;5142296;28;20464;-64
2022/09/29 03:25:59;;;;;;;1.60;1.50;;;19.00;99.90;;;;;;5141959;27;20573;-64
2022/09/29 03:28:30;;;;;;;4.03;1.60;;;18.70;99.90;;;;;;5142796;27;20427;-65
2022/09/29 03:31:08;;;;;;;2.20;2.00;;;18.50;99.90;;;;;;5127041;27;20416;-64
2022/09/29 03:33:39;;;;;;;2.67;1.90;;;18.40;99.90;;;;;;5116958;28;21151;-64
2022/09/29 03:36:12;;;;;;;1.70;1.57;;;18.30;99.90;;;;;;5128164;28;20494;-65
2022/09/29 03:38:42;;;;;;;3.10;2.33;;;18.20;99.90;;;;;;5129853;27;20462;-64
2022/09/29 03:41:13;;;;;;;3.13;1.63;;;18.10;99.90;;;;;;5125494;28;20464;-65
2022/09/29 03:43:44;;;;;;;1.70;1.60;;;18.10;99.90;;;;;;5126402;27;20595;-67
2022/09/29 03:46:15;;;;;;;3.53;1.90;;;18.10;99.90;;;;;;5134096;27;20472;-66
2022/09/29 03:48:46;;;;;;;2.27;2.07;;;18.00;99.90;;;;;;5131755;28;20449;-67
2022/09/29 03:51:18;;;;;;;1.90;1.80;;;17.90;99.90;;;;;;5142123;27;20965;-66
2022/09/29 03:53:49;;;;;;;2.37;1.63;;;17.90;99.90;;;;;;5127623;27;20485;-68
2022/09/29 03:56:20;;;;;;;2.40;1.80;;;17.80;99.90;;;;;;5134349;28;20595;-67
2022/09/29 03:58:51;;;;;;;1.90;1.80;;;17.80;99.90;;;;;;5133267;27;20450;-66
2022/09/29 04:01:22;;;;;;;2.57;1.73;;;17.80;99.90;;;;;;5141501;28;20420;-66
2022/09/29 04:03:53;;;;;;;2.20;1.70;;;17.70;99.90;;;;;;5129071;27;20519;-66
2022/09/29 04:06:25;;;;;;;1.30;1.20;;;17.70;99.90;;;;;;5142183;27;20455;-66
2022/09/29 04:08:56;;;;;;;2.10;1.63;;;17.70;99.90;;;;;;5121582;27;20433;-67
2022/09/29 04:11:27;;;;;;;1.60;1.50;;;17.80;99.90;;;;;;5130193;27;20432;-66
2022/09/29 04:13:58;;;;;;;1.80;1.70;;;17.80;99.90;;;;;;5137502;27;20463;-66
2022/09/29 04:16:28;;;;;;;1.93;1.70;;;17.80;99.90;;;;;;5120781;28;20461;-66
2022/09/29 04:18:59;;;;;;;2.60;1.73;;;17.80;99.90;;;;;;5125751;27;20469;-65
2022/09/29 04:21:32;;;;;;;1.80;1.60;;;17.80;99.90;;;;;;5136040;27;20533;-66
2022/09/29 04:24:03;;;;;;;1.70;1.60;;;17.80;99.90;;;;;;5126163;27;20482;-65
2022/09/29 04:26:33;;;;;;;3.37;1.63;;;17.70;99.90;;;;;;5126736;27;20459;-66
2022/09/29 04:29:04;;;;;;;2.50;1.53;;;17.70;99.90;;;;;;5124387;27;20525;-65
2022/09/29 04:31:35;;;;;;;2.20;2.00;;;17.70;99.90;;;;;;5145774;27;20449;-65
2022/09/29 04:34:06;;;;;;;1.33;1.23;;;17.60;99.90;;;;;;5146687;27;20433;-67
2022/09/29 04:36:39;;;;;;;2.03;1.83;;;17.60;99.90;;;;;;5145475;27;20445;-65
2022/09/29 04:39:09;;;;;;;1.77;1.60;;;17.60;99.90;;;;;;5145751;27;20449;-65
2022/09/29 04:41:40;;;;;;;1.50;1.40;;;17.60;99.90;;;;;;5130371;27;20456;-66
2022/09/29 04:44:11;;;;;;;2.60;1.70;;;17.60;99.90;;;;;;5135637;27;20513;-67
2022/09/29 04:46:41;;;;;;;2.60;2.30;;;17.60;99.90;;;;;;5121668;27;20771;-66
2022/09/29 04:49:12;;;;;;;2.03;1.80;;;17.70;99.90;;;;;;5133791;27;20457;-67
2022/09/29 04:51:44;;;;;;;1.67;1.57;;;17.70;99.90;;;;;;5140622;27;20814;-66
2022/09/29 04:54:16;;;;;;;1.80;1.40;;;17.80;99.90;;;;;;5142381;27;20439;-66
2022/09/29 04:56:49;;;;;;;2.40;1.67;;;17.70;99.90;;;;;;5140179;27;20446;-66
2022/09/29 04:59:19;;;;;;;1.80;1.33;;;17.60;99.90;;;;;;5142258;27;20523;-66
2022/09/29 05:01:50;;;;;;;2.20;1.97;;;17.60;99.90;;;;;;5142805;27;20445;-65
2022/09/29 05:04:21;;;;;;;2.10;1.33;;;17.50;99.90;;;;;;5116897;27;20515;-66
2022/09/29 05:06:53;;;;;;;5.30;1.70;;;17.40;99.90;;;;;;5140451;27;20568;-64
2022/09/29 05:09:24;;;;;;;2.40;1.80;;;17.20;99.90;;;;;;5144829;27;20446;-67
2022/09/29 05:12:01;;;;;;;2.80;1.50;;;17.10;99.90;;;;;;5138625;27;20423;-66
2022/09/29 05:14:32;;;;;;;2.70;1.80;;;17.00;99.90;;;;;;5129307;27;20512;-67
2022/09/29 05:17:02;;;;;;;2.80;1.60;;;16.90;99.90;;;;;;5134718;27;20446;-66
2022/09/29 05:19:33;;;;;;;2.43;1.40;;;16.80;99.90;;;;;;5128329;27;20490;-67
2022/09/29 05:22:06;;;;;;;1.70;1.60;;;16.70;99.90;;;;;;5135037;27;20469;-66
2022/09/29 05:24:37;;;;;;;2.70;1.90;;;16.70;99.90;;;;;;5143918;27;20448;-66
2022/09/29 05:27:08;;;;;;;2.37;1.70;;;16.70;99.90;;;;;;5140851;27;20511;-66
2022/09/29 05:29:38;;;;;;;2.80;1.33;;;16.70;99.90;;;;;;5137115;27;20776;-66
2022/09/29 05:32:09;;;;;;;3.30;2.80;;;16.60;99.90;;;;;;5144615;27;20457;-66
2022/09/29 05:34:40;;;;;;;2.47;1.97;;;16.60;99.90;;;;;;5131931;27;20443;-64
2022/09/29 05:37:12;;;;;;;2.23;1.70;;;16.60;99.90;;;;;;5139118;27;20525;-65
2022/09/29 05:39:43;;;;;;;1.83;1.57;;;16.60;99.90;;;;;;5143215;27;20452;-65
2022/09/29 05:42:14;;;;;;;2.20;2.00;;;16.60;99.90;;;;;;5142995;27;20419;-65
2022/09/29 05:44:45;;;;;;;1.70;1.60;;;16.60;99.90;;;;;;5144544;27;20419;-65
2022/09/29 05:47:15;;;;;;;5.73;1.93;;;16.60;99.90;;;;;;5135534;27;20549;-65
2022/09/29 05:49:46;;;;;;;2.43;1.90;;;16.60;99.90;;;;;;5136050;27;20445;-65
2022/09/29 05:52:18;;;;;;;3.07;2.00;;;16.60;99.90;;;;;;5143410;27;20416;-65
2022/09/29 05:54:50;;;;;;;1.60;1.50;;;16.60;99.90;;;;;;5124328;27;20441;-65
2022/09/29 05:57:20;;;;;;;2.53;1.60;;;16.60;99.90;;;;;;5119260;27;20499;-65
2022/09/29 05:59:52;;;;;;;2.33;1.70;;;16.60;99.90;;;;;;5133790;27;20450;-65
2022/09/29 06:02:23;;;;;;;2.17;1.97;;;16.60;99.90;;;;;;5121362;27;20454;-65
2022/09/29 06:04:54;;;;;;;1.53;1.40;;;16.60;99.90;;;;;;5131669;27;21052;-65
2022/09/29 06:07:26;;;;;;;2.67;2.10;;;16.60;99.90;;;;;;5140927;27;20505;-65
2022/09/29 06:09:57;;;;;;;1.80;1.40;;;16.70;99.90;;;;;;5137961;27;20464;-65
2022/09/29 06:12:27;;;;;;;2.33;1.80;;;16.60;99.90;;;;;;5139609;27;20427;-65
2022/09/29 06:14:58;;;;;;;2.00;1.80;;;16.60;99.90;;;;;;5122322;27;20429;-65
2022/09/29 06:17:29;;;;;;;2.07;1.97;;;16.60;99.90;;;;;;5120029;27;20542;-65
2022/09/29 06:19:59;;;;;;;2.03;1.30;;;16.60;99.90;;;;;;5126742;27;20441;-65
2022/09/29 06:22:32;;;;;;;2.13;1.93;;;16.60;99.90;;;;;;5141844;27;20505;-64
2022/09/29 06:25:03;;;;;;;1.87;1.60;;;16.60;99.90;;;;;;5143068;27;20501;-65
2022/09/29 06:27:33;;;;;;;2.00;1.83;;;16.60;99.90;;;;;;5109954;27;20454;-65
2022/09/29 06:30:05;;;;;;;1.53;1.43;;;16.60;99.90;;;;;;5131628;27;20429;-65
2022/09/29 06:32:36;;;;;;;2.57;1.60;;;16.50;99.90;;;;;;5144004;27;20448;-66
2022/09/29 06:37:57;;;;;;;1.80;1.63;;;16.50;99.90;;;;;;5117515;27;20435;-65
2022/09/29 06:40:28;;;;;;;1.70;1.57;;;16.60;99.90;;;;;;5141952;27;20440;-65
2022/09/29 06:42:59;;;;;;;1.50;1.37;;;16.70;99.90;;;;;;5143421;27;20524;-65
2022/09/29 06:45:30;;;;;;;2.93;1.90;;;16.70;99.90;;;;;;5139038;27;20522;-66
2022/09/29 06:48:02;;;;;;;1.53;1.43;;;16.70;99.90;;;;;;5135991;27;20477;-65
2022/09/29 06:50:32;;;;;;;2.20;1.80;;;16.70;99.90;;;;;;5133883;27;20455;-65
2022/09/29 06:53:05;;;;;;;1.80;1.70;;;16.70;99.90;;;;;;5130475;27;20510;-65
2022/09/29 06:55:36;;;;;;;2.90;1.73;;;16.60;99.90;;;;;;5112639;27;20495;-65
2022/09/29 06:58:07;;;;;;;1.80;1.50;;;16.60;99.90;;;;;;5126285;27;20520;-65
2022/09/29 07:00:39;;;;;;;2.10;1.50;;;16.50;99.90;;;;;;5122885;27;21114;-65
2022/09/29 07:03:10;;;;;;;1.33;1.23;;;16.50;99.90;;;;;;5129138;27;20470;-65
2022/09/29 07:05:41;;;;;;;1.60;1.50;;;16.50;99.90;;;;;;5131312;27;20556;-65
2022/09/29 07:08:27;;;;;;;1.83;1.40;;;16.50;99.90;;;;;;5132913;27;20496;-65
2022/09/29 07:10:58;;;;;;;1.33;1.23;;;16.50;99.90;;;;;;5131474;27;20829;-65
2022/09/29 07:13:29;;;;;;;1.13;1.13;;;16.60;99.90;;;;;;5124356;28;20881;-65
2022/09/29 07:16:07;;;;;;;1.33;1.23;;;16.60;99.90;;;;;;5122751;28;20512;-65
2022/09/29 07:18:39;;;;;;;2.17;1.57;;;16.60;99.90;;;;;;5124987;28;20446;-65
2022/09/29 07:21:11;;;;;;;1.50;1.40;;;16.60;99.90;;;;;;5114224;28;20432;-65
2022/09/29 07:23:44;;;;;;;1.70;1.30;;;16.60;99.90;;;;;;5129584;27;20436;-65
2022/09/29 07:26:16;;;;;;;1.27;1.10;;;16.60;99.90;;;;;;5120815;28;20465;-65
2022/09/29 07:28:47;;;;;;;1.80;1.47;;;16.60;99.90;;;;;;5131034;28;20550;-66
2022/09/29 07:31:20;;;;;;;2.07;1.43;;;16.60;99.90;;;;;;5140348;27;20509;-65
2022/09/29 07:33:52;;;;;;;2.57;1.67;;;16.60;99.90;;;;;;5133549;27;20432;-65
2022/09/29 07:36:23;;;;;;;1.07;1.03;;;16.60;99.90;;;;;;5112160;28;20492;-65
2022/09/29 07:38:55;;;;;;;3.50;1.63;;;16.60;99.90;;;;;;5123148;28;20460;-66
2022/09/29 07:41:26;;;;;;;1.40;1.30;;;16.70;99.90;;;;;;5129027;28;20456;-66
2022/09/29 07:43:57;;;;;;;2.10;1.43;;;16.70;99.90;;;;;;5116751;27;20945;-65
2022/09/29 07:46:28;;;;;;;1.40;1.20;;;16.70;99.90;;;;;;5126371;28;20981;-66
2022/09/29 07:48:59;;;;;;;3.43;1.63;;;16.70;99.90;;;;;;5139307;27;20488;-66
2022/09/29 07:51:30;;;;;;;1.93;1.40;;;16.80;99.90;;;;;;5113395;28;21045;-65
2022/09/29 07:54:05;;;;;;;2.20;1.37;;;16.70;99.90;;;;;;5129780;27;20435;-66
2022/09/29 07:56:36;;;;;;;1.60;1.50;;;16.70;99.90;;;;;;5140746;27;20536;-66
2022/09/29 07:59:07;;;;;;;1.97;1.47;;;16.70;99.90;;;;;;5133018;27;20547;-66
2022/09/29 08:01:38;;;;;;;2.57;1.50;;;16.70;99.90;;;;;;5138346;27;20476;-66
2022/09/29 08:04:09;;;;;;;1.43;1.20;;;16.70;99.90;;;;;;5131379;27;20529;-66
2022/09/29 08:06:41;;;;;;;2.40;1.57;;;16.60;99.90;;;;;;5139366;27;20468;-66
2022/09/29 08:09:14;;;;;;;3.10;1.50;;;16.50;99.90;;;;;;5135150;27;20519;-66
2022/09/29 08:11:45;;;;;;;0.93;0.80;;;16.50;99.90;;;;;;5131882;27;20465;-65
2022/09/29 08:14:17;;;;;;;3.30;1.63;;;16.40;99.90;;;;;;5117534;27;20463;-66
2022/09/29 08:16:48;;;;;;;1.53;1.10;;;16.40;99.90;;;;;;5132970;27;20460;-65
2022/09/29 08:19:19;;;;;;;1.70;1.60;;;16.40;99.90;;;;;;5128045;27;20469;-65
2022/09/29 08:21:50;;;;;;;1.87;1.20;;;16.40;99.90;;;;;;5126668;27;20462;-65
2022/09/29 08:24:22;;;;;;;1.40;1.30;;;16.40;99.90;;;;;;5145887;27;20453;-65
2022/09/29 08:26:55;;;;;;;1.70;0.90;;;16.40;99.90;;;;;;5130460;27;20460;-66
2022/09/29 08:29:27;;;;;;;1.13;1.03;;;16.50;99.90;;;;;;5122590;27;20834;-65
2022/09/29 08:32:12;;;;;;;1.50;1.40;;;16.50;99.90;;;;;;5135598;27;20476;-66
2022/09/29 08:34:43;;;;;;;1.37;1.23;;;16.50;99.90;;;;;;5141827;27;20461;-64
2022/09/29 08:37:14;;;;;;;0.87;0.77;;;16.50;99.90;;;;;;5141112;27;20472;-64
2022/09/29 08:39:46;;;;;;;0.87;0.87;;;16.50;99.90;;;;;;5136382;27;20469;-65
2022/09/29 08:42:25;;;;;;;1.80;1.07;;;16.50;99.90;;;;;;5132771;27;20457;-65
2022/09/29 08:45:02;;;;;;;1.17;1.07;;;16.40;99.90;;;;;;5123318;28;20548;-65
2022/09/29 08:47:47;;;;;;;2.93;1.30;;;16.30;99.90;;;;;;5133542;27;20484;-65
2022/09/29 08:50:26;;;;;;;2.43;0.90;;;16.30;99.90;;;;;;5138117;27;21065;-65
2022/09/29 08:53:02;;;;;;;1.60;0.93;;;16.20;99.90;;;;;;5133837;27;20517;-65
2022/09/29 08:55:44;;;;;;;1.43;1.17;;;16.30;99.90;;;;;;5139139;27;20486;-65
2022/09/29 08:58:16;;;;;;;0.70;0.70;;;16.30;99.90;;;;;;5130219;27;20623;-66
2022/09/29 09:00:58;;;;;;;1.20;0.90;;;16.30;99.90;;;;;;5114121;27;20457;-65
2022/09/29 09:03:49;;;;;;;1.23;1.00;;;16.20;99.90;;;;;;5125389;27;20481;-65
2022/09/29 09:06:28;;;;;;;1.87;1.07;;;16.20;99.90;;;;;;5131688;27;20462;-65
2022/09/29 09:09:30;;;;;;;1.97;1.13;;;16.20;99.90;;;;;;5131721;27;20476;-65
2022/09/29 09:12:32;;;;;;;1.27;0.70;;;16.10;99.90;;;;;;5141262;27;20506;-65
2022/09/29 09:15:24;;;;;;;2.40;1.43;;;16.10;99.90;;;;;;5122304;27;20541;-65
2022/09/29 09:18:25;;;;;;;1.50;1.40;;;16.10;99.90;;;;;;5131040;27;20478;-65
2022/09/29 09:21:02;;;;;;;1.83;1.50;;;16.10;99.90;;;;;;5130611;27;20505;-65
2022/09/29 09:23:39;;;;;;;3.93;1.17;;;16.10;99.90;;;;;;5142326;27;20440;-65
2022/09/29 09:26:12;;;;;;;1.17;1.07;;;16.10;99.90;;;;;;5126846;27;20461;-64
2022/09/29 09:28:50;;;;;;;1.17;0.80;;;16.10;99.90;;;;;;5138217;27;20453;-65
2022/09/29 09:31:27;;;;;;;1.27;1.03;;;16.10;99.90;;;;;;5134380;27;20579;-64
2022/09/29 09:34:02;;;;;;;1.30;1.17;;;16.10;99.90;;;;;;5126187;27;20965;-65
2022/09/29 09:36:37;;;;;;;1.53;1.40;;;16.00;99.90;;;;;;5131433;27;20457;-64
2022/09/29 09:39:14;;;;;;;1.00;0.90;;;16.00;99.90;;;;;;5133045;27;20477;-65
2022/09/29 09:41:48;;;;;;;1.90;1.53;;;16.00;99.90;;;;;;5115656;27;20952;-65
2022/09/29 09:44:23;;;;;;;1.80;0.80;;;16.00;99.90;;;;;;5122488;27;20465;-65
2022/09/29 09:46:56;;;;;;;1.43;1.23;;;15.90;99.90;;;;;;5124439;27;20509;-65
2022/09/29 09:49:31;;;;;;;1.10;0.93;;;15.90;99.90;;;;;;5122485;27;20536;-65
2022/09/29 09:52:10;;;;;;;3.53;1.63;;;15.90;99.90;;;;;;5130721;27;20482;-66
2022/09/29 09:54:44;;;;;;;3.00;1.17;;;15.90;99.90;;;;;;5130498;27;20441;-66
2022/09/29 09:57:48;;;;;;;1.23;0.90;;;15.90;99.90;;;;;;5132462;27;21000;-66
2022/09/29 10:00:26;;;;;;;1.57;1.40;;;15.90;99.90;;;;;;5121544;27;20525;-66
2022/09/29 10:02:58;;;;;;;1.60;1.00;;;15.90;99.90;;;;;;5136133;27;20488;-66
2022/09/29 10:05:36;;;;;;;1.10;1.00;;;15.90;99.90;;;;;;5128505;27;20453;-65
2022/09/29 10:08:11;;;;;;;1.13;1.07;;;15.90;99.90;;;;;;5125790;27;20465;-65
2022/09/29 10:10:43;;;;;;;1.20;1.00;;;15.80;99.90;;;;;;5125861;27;20488;-66
2022/09/29 10:13:32;;;;;;;1.80;1.00;;;15.80;99.90;;;;;;5114875;27;20461;-66
2022/09/29 10:16:15;;;;;;;2.13;1.30;;;15.80;99.90;;;;;;5123376;27;20499;-66
2022/09/29 10:18:51;;;;;;;1.30;1.20;;;15.80;99.90;;;;;;5120436;27;20516;-66
2022/09/29 10:21:24;;;;;;;2.73;1.27;;;15.90;99.90;;;;;;5140266;27;20456;-66
2022/09/29 10:23:55;;;;;;;2.87;1.17;;;15.90;99.90;;;;;;5121457;27;20469;-66
2022/09/29 10:26:30;;;;;;;2.40;1.17;;;16.00;99.90;;;;;;5127230;27;20461;-66
2022/09/29 10:29:04;;;;;;;1.67;1.57;;;15.90;99.90;;;;;;5124247;27;20456;-66
2022/09/29 10:31:38;;;;;;;2.37;1.60;;;16.00;99.90;;;;;;5139127;27;20496;-65
2022/09/29 10:34:18;;;;;;;2.17;1.27;;;16.00;99.90;;;;;;5135545;27;20458;-66
2022/09/29 10:36:53;;;;;;;2.80;1.50;;;16.00;99.90;;;;;;5120197;27;20448;-66
2022/09/29 10:39:38;;;;;;;1.93;1.53;;;16.00;99.90;;;;;;5141072;27;20821;-66
2022/09/29 10:42:35;;;;;;;2.00;1.23;;;16.00;99.90;;;;;;5127735;27;20465;-66
2022/09/29 10:45:14;;;;;;;1.60;1.50;;;16.00;99.90;;;;;;5122182;27;20461;-66
2022/09/29 10:47:50;;;;;;;1.60;1.40;;;16.00;99.90;;;;;;5133123;27;20451;-66
2022/09/29 10:50:24;;;;;;;1.90;1.70;;;16.00;99.90;;;;;;5126682;27;20565;-66
2022/09/29 10:52:58;;;;;;;2.90;1.67;;;16.00;99.90;;;;;;5134012;27;20459;-66
2022/09/29 10:55:30;;;;;;;1.87;1.63;;;16.00;99.90;;;;;;5123960;27;20517;-66
2022/09/29 10:58:06;;;;;;;1.87;1.70;;;16.00;99.90;;;;;;5136020;27;20524;-66
2022/09/29 11:00:39;;;;;;;1.53;1.43;;;16.00;99.90;;;;;;5132886;27;20454;-67
2022/09/29 11:03:20;;;;;;;3.23;1.63;;;16.00;99.90;;;;;;5130346;27;20476;-66
2022/09/29 11:05:55;;;;;;;1.20;1.10;;;16.00;99.90;;;;;;5133239;27;20456;-66
2022/09/29 11:08:26;;;;;;;1.87;1.60;;;16.00;99.90;;;;;;5118164;27;20829;-66
2022/09/29 11:11:06;;;;;;;2.00;1.80;;;16.00;99.90;;;;;;5122008;27;20533;-65
2022/09/29 11:13:39;;;;;;;2.30;1.50;;;16.10;99.90;;;;;;5123874;28;20461;-65
2022/09/29 11:16:16;;;;;;;1.47;1.37;;;16.10;99.90;;;;;;5108915;28;20457;-66
2022/09/29 11:18:52;;;;;;;1.47;1.27;;;16.00;99.90;;;;;;5113412;28;20461;-65
2022/09/29 11:21:59;;;;;;;2.80;1.90;;;16.10;99.90;;;;;;5124756;28;20491;-65
2022/09/29 11:24:49;;;;;;;4.23;1.80;;;16.00;99.90;;;;;;5137054;28;20494;-66
2022/09/29 11:27:33;;;;;;;1.67;1.10;;;16.00;99.90;;;;;;5136308;27;20468;-65
2022/09/29 11:30:10;;;;;;;1.60;1.50;;;16.00;99.90;;;;;;5143838;27;20423;-65
2022/09/29 11:33:04;;;;;;;2.50;1.53;;;16.10;99.90;;;;;;5129487;27;20477;-66
2022/09/29 11:35:46;;;;;;;2.53;1.70;;;16.10;99.90;;;;;;5121878;27;20476;-65
2022/09/29 11:38:42;;;;;;;2.10;1.90;;;16.10;99.90;;;;;;5125859;27;20470;-65
2022/09/29 11:41:30;;;;;;;1.63;1.50;;;16.10;99.90;;;;;;5125495;27;20439;-65
2022/09/29 11:44:09;;;;;;;1.80;1.53;;;16.10;99.90;;;;;;5132249;27;20507;-65
2022/09/29 11:46:53;;;;;;;1.63;1.40;;;16.10;99.90;;;;;;5141386;27;20444;-65
2022/09/29 11:49:44;;;;;;;3.17;1.60;;;16.10;99.90;;;;;;5146902;27;20444;-65
2022/09/29 11:52:34;;;;;;;1.73;1.60;;;16.20;99.90;;;;;;5113864;27;20484;-65
2022/09/29 11:55:27;;;;;;;2.20;1.93;;;16.10;99.90;;;;;;5138825;27;20504;-65
2022/09/29 11:58:07;;;;;;;1.70;1.40;;;16.10;99.90;;;;;;5146709;27;20448;-65
2022/09/29 12:00:52;;;;;;;4.60;1.70;;;16.10;99.90;;;;;;5146533;27;20508;-65
2022/09/29 12:03:37;;;;;;;2.83;1.20;;;16.10;99.90;;;;;;5145280;27;20826;-65
2022/09/29 12:06:32;;;;;;;1.80;1.30;;;16.10;99.90;;;;;;5122970;27;20452;-65
2022/09/29 12:09:22;;;;;;;1.40;1.30;;;16.10;99.90;;;;;;5139246;27;20478;-65
2022/09/29 12:12:02;;;;;;;1.77;1.57;;;16.10;99.90;;;;;;5145071;27;21373;-65
2022/09/29 12:15:21;;;;;;;2.40;1.60;;;16.10;99.90;;;;;;5145947;27;20456;-66
2022/09/29 12:18:00;;;;;;;1.43;1.10;;;16.10;99.90;;;;;;5126095;27;20465;-66
2022/09/29 12:20:34;;;;;;;1.63;1.53;;;16.10;99.90;;;;;;5138478;27;20456;-66
2022/09/29 12:23:11;;;;;;;1.23;1.13;;;16.10;99.90;;;;;;5139914;27;20475;-66
2022/09/29 12:25:52;;;;;;;1.60;1.23;;;16.10;99.90;;;;;;5135247;27;20456;-66
2022/09/29 12:28:27;;;;;;;2.40;1.43;;;16.10;99.90;;;;;;5132429;27;20456;-65
2022/09/29 12:31:03;;;;;;;1.87;1.50;;;16.20;99.90;;;;;;5128894;27;20848;-66
2022/09/29 12:33:38;;;;;;;1.70;1.60;;;16.20;99.90;;;;;;5138793;27;20920;-65
2022/09/29 12:39:10;;;;;;;1.67;1.37;;;16.20;99.90;;;;;;5110789;27;20487;-66
2022/09/29 12:41:49;;;;;;;0.93;0.83;;;16.20;99.90;;;;;;5107462;27;20523;-66
2022/09/29 12:44:29;;;;;;;1.23;1.10;;;16.20;99.90;;;;;;5141540;27;20681;-66
2022/09/29 12:47:05;;;;;;;1.40;1.20;;;16.20;99.90;;;;;;5135579;27;20469;-65
2022/09/29 12:49:48;;;;;;;1.10;1.00;;;16.20;99.90;;;;;;5141825;27;20933;-65
2022/09/29 12:52:25;;;;;;;1.40;1.30;;;16.10;99.90;;;;;;5139880;27;20492;-66
2022/09/29 12:55:01;;;;;;;1.80;1.20;;;16.10;99.90;;;;;;5131469;27;20461;-65
2022/09/29 12:57:38;;;;;;;1.10;1.00;;;16.10;99.90;;;;;;5124126;27;20618;-65
2022/09/29 13:00:15;;;;;;;0.80;0.70;;;16.20;99.90;;;;;;5134616;27;20452;-65
2022/09/29 13:03:17;;;;;;;1.03;1.00;;;16.10;99.90;;;;;;5125280;27;20479;-65
2022/09/29 13:06:14;;;;;;;1.20;1.00;;;16.10;99.90;;;;;;5135964;27;20540;-65
2022/09/29 13:09:10;;;;;;;1.43;1.13;;;16.10;99.90;;;;;;5138817;27;20949;-65
2022/09/29 13:12:30;;;;;;;2.73;1.47;;;16.10;99.90;;;;;;5137396;27;20488;-65
2022/09/29 13:15:39;;;;;;;1.10;1.00;;;16.00;99.90;;;;;;5052530;28;20499;-67
2022/09/29 13:18:43;;;;;;;2.00;1.30;;;16.10;99.90;;;;;;5056962;28;20448;-66
2022/09/29 13:21:40;;;;;;;1.03;0.90;;;16.00;99.90;;;;;;5061026;28;20437;-66
2022/09/29 13:24:32;;;;;;;1.83;1.20;;;16.00;99.90;;;;;;5053834;28;20462;-66
2022/09/29 13:27:28;;;;;;;1.40;1.30;;;16.00;99.90;;;;;;5040225;28;20449;-66
2022/09/29 13:30:05;;;;;;;1.00;0.93;;;16.00;99.90;;;;;;5030728;28;20497;-66
2022/09/29 13:32:44;;;;;;;1.20;1.10;;;16.00;99.90;;;;;;5034836;28;20556;-66
2022/09/29 13:35:18;;;;;;;1.13;1.03;;;16.00;99.90;;;;;;5037672;28;20499;-66
2022/09/29 13:37:52;;;;;;;1.20;1.00;;;16.00;99.90;;;;;;5040052;28;20460;-66
2022/09/29 13:40:25;;;;;;;1.13;1.03;;;16.00;99.90;;;;;;5039818;28;20482;-67